SCKB weather

Llollenorte Airport
Lago Caburga, Araucanía Region, Chile

Public forecast

Using degrees Celsius for public forecast. Weather courtesy of forecast.io.

METAR (pilot weather report)

Report is more than 6 hours old.

Closest report is Pucón Airport, 17.6 nm (32.6 km) SW. Retrieved 2016/04/29 12:00 UTC (3 years ago):

SCPC 291200Z 28004KT 9999 -DZ BKN013 25/24 A2984

TAF (pilot weather forecast)

Forecast is more than 12 hours old.

Closest forecast is La Araucanía Airport, 45.6 nm (84.4 km) W. Retrieved 2019/03/22 00:00 UTC (1 day ago):

TAF SCQP 222204Z 2300/2324 23008KT CAVOK TN10/2310Z TX18/2319Z BECMG 2300/2302 26004KT 9999 SCT020 SCT060 BECMG 2303/2305 VRB02KT BKN015 BKN060 BECMG 2307/2309 OVC012 TEMPO 2309/2315 00000KT 4000 -DZBR OVC007 BECMG 2315/2317 24007KT SCT010 BKN035 BECMG 2318/2320 25013KT CAVOK BECMG 2322/2324 26007KT